This is the latest recevied weather packets stored in our database for station/object VK1KCM-5. If no packets are shown the sender has not sent any weather packets the latest 10 day(s).
| Time | Temp. | Humidity | Pressure | Rain* | Wind** | Luminosity | Snow |
|---|---|---|---|---|---|---|---|
| 1787968663 | 16.11° C | 60% | 1027.4 hPa | 0 mm | - | - | - |
| 1787968372 | 16.11° C | 61% | 1027.6 hPa | 0 mm | - | - | - |
| 1787968108 | 16.11° C | 62% | 1027.7 hPa | 0 mm | - | - | - |
| 1787967848 | 16.67° C | 62% | 1027.6 hPa | 0 mm | - | - | - |
| 1787967578 | 15.56° C | 63% | 1027.7 hPa | 0 mm | - | - | - |
| 1787967288 | 15° C | 65% | 1028.1 hPa | 0 mm | - | - | - |
| 1787966991 | 15° C | 65% | 1028.1 hPa | 0 mm | - | - | - |
| 1787966722 | 15° C | 64% | 1028.2 hPa | 0 mm | - | - | - |
| 1787966428 | 15° C | 65% | 1028.4 hPa | 0 mm | - | - | - |
| 1787966179 | 15° C | 65% | 1028.4 hPa | 0 mm | - | - | - |
| 1787965888 | 15° C | 66% | 1028.3 hPa | 0 mm | - | - | - |
| 1787965607 | 15° C | 66% | 1028.4 hPa | 0 mm | - | - | - |
| 1787965323 | 15° C | 66% | 1028.7 hPa | 0 mm | - | - | - |
| 1787965076 | 15° C | 65% | 1028.5 hPa | 0 mm | - | - | - |
| 1787964778 | 14.44° C | 67% | 1028.8 hPa | 0 mm | - | - | - |
| 1787964503 | 13.89° C | 68% | 1029.2 hPa | 0 mm | - | - | - |
| 1787964257 | 13.33° C | 70% | 1029.2 hPa | 0 mm | - | - | - |
| 1787963976 | 13.89° C | 68% | 1029 hPa | 0 mm | - | - | - |
| 1787963733 | 13.33° C | 68% | 1029.4 hPa | 0 mm | - | - | - |
| 1787963489 | 13.33° C | 68% | 1029.4 hPa | 0 mm | - | - | - |
| 1787963243 | 13.89° C | 68% | 1029.1 hPa | 0 mm | - | - | - |
| 1787962948 | 13.33° C | 69% | 1029.5 hPa | 0 mm | - | - | - |
| 1787962663 | 13.33° C | 69% | 1029.1 hPa | 0 mm | - | - | - |
| 1787962403 | 14.44° C | 67% | 1029 hPa | 0 mm | - | - | - |
| 1787962151 | 13.33° C | 68% | 1029.1 hPa | 0 mm | - | - | - |
* Rain latest hour (hover to see other rain measurements)
** Current wind speed in m/s (hover to see current wind gust speed)